Time,TemperatureF,DewpointF,PressureIn,WindDirection,WindDirectionDegrees,WindSpeedMPH,WindSpeedGustMPH,Humidity,HourlyPrecipIn,Conditions,Clouds,dailyrainin,SoftwareType,DateUTC
2013-08-28 00:04:00,66.0,57.5,27.99,SSE,159,0.0,0.0,74,0.00,,---,0.00,VWS V14.01,2013-08-28 05:04:00,
2013-08-28 00:09:00,65.8,57.3,27.99,SSE,159,0.0,0.0,74,0.00,,---,0.00,VWS V14.01,2013-08-28 05:09:00,
2013-08-28 00:14:00,65.6,56.7,27.99,SSE,159,0.0,0.0,73,0.00,,---,0.00,VWS V14.01,2013-08-28 05:14:00,
2013-08-28 00:19:00,65.6,56.7,27.99,SSE,159,0.0,0.0,73,0.00,,---,0.00,VWS V14.01,2013-08-28 05:19:00,
2013-08-28 00:25:00,65.6,56.7,27.99,SSE,159,0.0,0.0,73,0.00,,---,0.00,VWS V14.01,2013-08-28 05:25:00,
2013-08-28 00:30:00,65.6,56.3,27.99,SSE,159,0.0,0.0,72,0.00,,---,0.00,VWS V14.01,2013-08-28 05:30:00,
2013-08-28 00:35:00,65.5,56.2,28.00,SSE,159,0.0,0.0,72,0.00,,---,0.00,VWS V14.01,2013-08-28 05:35:00,
2013-08-28 00:40:00,65.3,56.4,28.00,SSE,159,0.0,0.0,73,0.00,,---,0.00,VWS V14.01,2013-08-28 05:40:00,
2013-08-28 00:45:00,64.9,56.0,28.00,SSE,159,0.0,0.0,73,0.00,,---,0.00,VWS V14.01,2013-08-28 05:45:00,
2013-08-28 00:50:00,64.8,56.0,28.00,SSE,159,0.0,0.0,73,0.00,,---,0.00,VWS V14.01,2013-08-28 05:50:00,
2013-08-28 00:55:00,64.8,56.0,28.00,SSE,159,0.0,0.0,73,0.00,,---,0.00,VWS V14.01,2013-08-28 05:55:00,
2013-08-28 01:00:00,64.7,56.2,28.00,SSE,159,0.0,0.0,74,0.00,,---,0.00,VWS V14.01,2013-08-28 06:00:00,
2013-08-28 01:06:00,64.4,55.9,28.00,SSE,159,0.0,0.0,74,0.00,,---,0.00,VWS V14.01,2013-08-28 06:06:00,
2013-08-28 01:11:00,64.2,56.1,28.00,SSE,159,0.0,0.0,75,0.00,,---,0.00,VWS V14.01,2013-08-28 06:11:00,
2013-08-28 01:16:00,63.8,56.1,28.00,SSE,159,0.0,0.0,76,0.00,,---,0.00,VWS V14.01,2013-08-28 06:16:00,
2013-08-28 01:21:00,63.4,55.7,28.00,SSE,159,0.0,0.0,76,0.00,,---,0.00,VWS V14.01,2013-08-28 06:21:00,
2013-08-28 01:26:00,63.0,55.7,28.00,SSE,159,0.0,0.0,77,0.00,,---,0.00,VWS V14.01,2013-08-28 06:26:00,
2013-08-28 01:31:00,62.6,56.3,28.00,SSE,159,0.0,0.0,80,0.00,,---,0.00,VWS V14.01,2013-08-28 06:31:00,
2013-08-28 01:36:00,62.3,56.4,28.00,SSE,159,0.0,0.0,81,0.00,,---,0.00,VWS V14.01,2013-08-28 06:36:00,
2013-08-28 01:42:00,61.9,55.7,28.00,SSE,159,0.0,0.0,80,0.00,,---,0.00,VWS V14.01,2013-08-28 06:42:00,
2013-08-28 01:47:00,61.8,56.9,27.99,SSE,159,0.0,0.0,84,0.00,,---,0.00,VWS V14.01,2013-08-28 06:47:00,
2013-08-28 01:52:00,61.7,58.1,27.99,SSE,159,0.0,0.0,88,0.00,,---,0.00,VWS V14.01,2013-08-28 06:52:00,
2013-08-28 01:57:00,61.7,58.4,27.99,SSE,159,0.0,0.0,89,0.00,,---,0.00,VWS V14.01,2013-08-28 06:57:00,
2013-08-28 02:03:00,61.7,58.7,27.99,SSE,159,0.0,0.0,90,0.00,,---,0.00,VWS V14.01,2013-08-28 07:03:00,
2013-08-28 02:08:00,61.5,58.5,27.99,SSE,159,0.0,0.0,90,0.00,,---,0.00,VWS V14.01,2013-08-28 07:08:00,
2013-08-28 02:13:00,61.1,58.2,27.99,SSE,159,0.0,0.0,90,0.00,,---,0.00,VWS V14.01,2013-08-28 07:13:00,
2013-08-28 02:18:00,60.7,56.8,27.99,SSE,159,0.0,0.0,87,0.00,,---,0.00,VWS V14.01,2013-08-28 07:18:00,
2013-08-28 02:23:00,60.2,56.3,27.99,SSE,159,0.0,0.0,87,0.00,,---,0.00,VWS V14.01,2013-08-28 07:23:00,
2013-08-28 02:29:00,60.1,57.2,27.99,SSE,159,0.0,0.0,90,0.00,,---,0.00,VWS V14.01,2013-08-28 07:29:00,
2013-08-28 02:34:00,60.0,57.1,27.99,SSE,159,0.0,0.0,90,0.00,,---,0.00,VWS V14.01,2013-08-28 07:34:00,
2013-08-28 02:39:00,60.0,57.7,27.99,SSE,159,0.0,0.0,92,0.00,,---,0.00,VWS V14.01,2013-08-28 07:39:00,
2013-08-28 02:44:00,59.9,57.6,27.99,SSE,159,0.0,0.0,92,0.00,,---,0.00,VWS V14.01,2013-08-28 07:44:00,
2013-08-28 02:49:00,59.7,57.7,27.99,SSE,159,0.0,0.0,93,0.00,,---,0.00,VWS V14.01,2013-08-28 07:49:00,
2013-08-28 02:54:00,59.7,57.7,27.99,SSE,159,0.0,0.0,93,0.00,,---,0.00,VWS V14.01,2013-08-28 07:54:00,
2013-08-28 02:59:00,60.0,58.3,27.99,SSE,159,0.0,0.0,94,0.00,,---,0.00,VWS V14.01,2013-08-28 07:59:00,
2013-08-28 03:05:00,60.1,58.7,27.99,SSE,159,0.0,0.0,95,0.00,,---,0.00,VWS V14.01,2013-08-28 08:05:00,
2013-08-28 03:10:00,59.9,58.2,27.99,SSE,159,0.0,0.0,94,0.00,,---,0.00,VWS V14.01,2013-08-28 08:10:00,
2013-08-28 03:15:00,59.6,57.9,27.99,SSE,159,0.0,0.0,94,0.00,,---,0.00,VWS V14.01,2013-08-28 08:15:00,
2013-08-28 03:20:00,59.2,57.2,27.99,SSE,159,0.0,0.0,93,0.00,,---,0.00,VWS V14.01,2013-08-28 08:20:00,
2013-08-28 03:25:00,59.0,57.0,27.99,SSE,159,0.0,0.0,93,0.00,,---,0.00,VWS V14.01,2013-08-28 08:25:00,
2013-08-28 03:30:00,59.0,57.0,27.99,SSE,159,0.0,0.0,93,0.00,,---,0.00,VWS V14.01,2013-08-28 08:30:00,
2013-08-28 03:36:00,59.0,57.3,27.99,SSE,159,0.0,0.0,94,0.00,,---,0.00,VWS V14.01,2013-08-28 08:36:00,
2013-08-28 03:41:00,59.0,57.3,27.99,SSE,159,0.0,0.0,94,0.00,,---,0.00,VWS V14.01,2013-08-28 08:41:00,
2013-08-28 03:46:00,59.0,57.6,27.99,SSE,159,0.0,0.0,95,0.00,,---,0.00,VWS V14.01,2013-08-28 08:46:00,
2013-08-28 03:51:00,59.2,57.8,27.99,SSE,159,0.0,0.0,95,0.00,,---,0.00,VWS V14.01,2013-08-28 08:51:00,
2013-08-28 03:56:00,59.0,57.6,27.99,SSE,159,0.0,0.0,95,0.00,,---,0.00,VWS V14.01,2013-08-28 08:56:00,
2013-08-28 04:01:00,59.0,57.6,28.00,SSE,159,0.0,0.0,95,0.00,,---,0.00,VWS V14.01,2013-08-28 09:01:00,
2013-08-28 04:06:00,59.0,57.6,28.00,SSE,159,0.0,0.0,95,0.00,,---,0.00,VWS V14.01,2013-08-28 09:06:00,
2013-08-28 04:12:00,58.6,57.2,28.00,SSE,159,0.0,0.0,95,0.00,,---,0.00,VWS V14.01,2013-08-28 09:12:00,
2013-08-28 04:17:00,58.4,57.0,28.00,SSE,159,0.0,0.0,95,0.00,,---,0.00,VWS V14.01,2013-08-28 09:17:00,
2013-08-28 04:22:00,58.2,56.8,28.00,SSE,159,0.0,0.0,95,0.00,,---,0.00,VWS V14.01,2013-08-28 09:22:00,
2013-08-28 04:27:00,58.0,56.6,28.00,SSE,159,0.0,0.0,95,0.00,,---,0.00,VWS V14.01,2013-08-28 09:27:00,
2013-08-28 04:32:00,57.8,56.4,28.01,SSE,159,0.0,0.0,95,0.00,,---,0.00,VWS V14.01,2013-08-28 09:32:00,
2013-08-28 04:35:00,57.8,56.7,28.01,SSE,159,0.0,0.0,96,0.00,,---,0.00,VWS V14.01,2013-08-28 09:35:00,
2013-08-28 04:40:00,58.1,57.0,28.01,SSE,159,0.0,0.0,96,0.00,,---,0.00,VWS V14.01,2013-08-28 09:40:00,
2013-08-28 04:45:00,58.4,57.3,28.01,SSE,159,0.0,0.0,96,0.00,,---,0.00,VWS V14.01,2013-08-28 09:45:00,
2013-08-28 04:51:00,58.3,57.2,28.01,SSE,159,0.0,0.0,96,0.00,,---,0.00,VWS V14.01,2013-08-28 09:51:00,
2013-08-28 04:56:00,58.4,57.3,28.01,SSE,159,0.0,0.0,96,0.00,,---,0.00,VWS V14.01,2013-08-28 09:56:00,
2013-08-28 05:01:00,58.4,57.3,28.01,SSE,159,0.0,0.0,96,0.00,,---,0.00,VWS V14.01,2013-08-28 10:01:00,
2013-08-28 05:06:00,58.3,57.2,28.01,SSE,159,0.0,0.0,96,0.00,,---,0.00,VWS V14.01,2013-08-28 10:06:00,
2013-08-28 05:12:00,58.3,57.2,28.01,SSE,159,0.0,0.0,96,0.00,,---,0.00,VWS V14.01,2013-08-28 10:12:00,
2013-08-28 05:17:00,58.3,57.5,28.01,SSE,159,0.0,0.0,97,0.00,,---,0.00,VWS V14.01,2013-08-28 10:17:00,
2013-08-28 05:22:00,58.2,57.4,28.01,SSE,159,0.0,0.0,97,0.00,,---,0.00,VWS V14.01,2013-08-28 10:22:00,
2013-08-28 05:27:00,58.4,57.6,28.01,SSE,159,0.0,0.0,97,0.00,,---,0.00,VWS V14.01,2013-08-28 10:27:00,
2013-08-28 05:32:00,58.5,57.7,28.01,SSE,159,0.0,0.0,97,0.00,,---,0.00,VWS V14.01,2013-08-28 10:32:00,
2013-08-28 05:37:00,58.5,57.7,28.01,SSE,159,0.0,0.0,97,0.00,,---,0.00,VWS V14.01,2013-08-28 10:37:00,
2013-08-28 05:43:00,58.3,57.5,28.01,SSE,159,0.0,0.0,97,0.00,,---,0.00,VWS V14.01,2013-08-28 10:43:00,
2013-08-28 05:48:00,58.1,57.3,28.01,SSE,159,0.0,0.0,97,0.00,,---,0.00,VWS V14.01,2013-08-28 10:48:00,
2013-08-28 05:53:00,57.8,57.0,28.01,SSE,159,0.0,0.0,97,0.00,,---,0.00,VWS V14.01,2013-08-28 10:53:00,
2013-08-28 05:58:00,57.7,56.9,28.01,SSE,159,0.0,0.0,97,0.00,,---,0.00,VWS V14.01,2013-08-28 10:58:00,
2013-08-28 06:03:00,58.0,57.2,28.02,SSE,159,0.0,0.0,97,0.00,,---,0.00,VWS V14.01,2013-08-28 11:03:00,
2013-08-28 06:08:00,58.0,57.2,28.02,SSE,159,0.0,0.0,97,0.00,,---,0.00,VWS V14.01,2013-08-28 11:08:00,
2013-08-28 06:13:00,58.0,57.2,28.02,SSE,159,0.0,0.0,97,0.00,,---,0.00,VWS V14.01,2013-08-28 11:13:00,
2013-08-28 06:18:00,57.9,57.1,28.02,SSE,159,0.0,0.0,97,0.00,,---,0.00,VWS V14.01,2013-08-28 11:18:00,
2013-08-28 06:24:00,58.1,57.3,28.02,SSE,159,0.0,0.0,97,0.00,,---,0.00,VWS V14.01,2013-08-28 11:24:00,
2013-08-28 06:29:00,58.0,57.2,28.02,SSE,159,0.0,0.0,97,0.00,,---,0.00,VWS V14.01,2013-08-28 11:29:00,
2013-08-28 06:34:00,57.9,57.1,28.03,SSE,159,0.0,0.0,97,0.00,,---,0.00,VWS V14.01,2013-08-28 11:34:00,
2013-08-28 06:39:00,57.8,57.0,28.03,SSE,159,0.0,0.0,97,0.00,,---,0.00,VWS V14.01,2013-08-28 11:39:00,
2013-08-28 06:44:00,57.9,57.1,28.03,SSE,159,0.0,0.0,97,0.00,,---,0.00,VWS V14.01,2013-08-28 11:44:00,
2013-08-28 06:49:00,57.9,57.1,28.03,SSE,159,0.0,0.0,97,0.00,,---,0.00,VWS V14.01,2013-08-28 11:49:00,
2013-08-28 06:54:00,58.1,57.3,28.03,SSE,159,0.0,0.0,97,0.00,,---,0.00,VWS V14.01,2013-08-28 11:54:00,
2013-08-28 06:59:00,58.4,57.6,28.03,SSE,159,0.0,0.0,97,0.00,,---,0.00,VWS V14.01,2013-08-28 11:59:00,
2013-08-28 07:04:00,59.0,58.4,28.03,SSE,159,0.0,0.0,98,0.00,,---,0.00,VWS V14.01,2013-08-28 12:04:00,
2013-08-28 07:10:00,59.2,58.6,28.03,SSE,159,0.0,0.0,98,0.00,,---,0.00,VWS V14.01,2013-08-28 12:10:00,
2013-08-28 07:15:00,59.8,59.2,28.03,SSE,159,0.0,0.0,98,0.00,,---,0.00,VWS V14.01,2013-08-28 12:15:00,
2013-08-28 07:20:00,60.7,60.1,28.03,SSE,159,0.0,0.0,98,0.00,,---,0.00,VWS V14.01,2013-08-28 12:20:00,
2013-08-28 07:25:00,61.1,60.5,28.03,SSE,159,0.0,0.0,98,0.00,,---,0.00,VWS V14.01,2013-08-28 12:25:00,
2013-08-28 07:30:00,61.8,61.2,28.03,SSE,159,0.0,0.0,98,0.00,,---,0.00,VWS V14.01,2013-08-28 12:30:00,
2013-08-28 07:35:00,62.9,62.3,28.03,SSE,159,0.0,0.0,98,0.00,,---,0.00,VWS V14.01,2013-08-28 12:35:00,
2013-08-28 07:41:00,63.8,63.2,28.03,SSE,159,0.0,0.0,98,0.00,,---,0.00,VWS V14.01,2013-08-28 12:41:00,
2013-08-28 07:46:00,64.3,63.7,28.03,SSE,159,0.0,0.0,98,0.00,,---,0.00,VWS V14.01,2013-08-28 12:46:00,
2013-08-28 07:51:00,64.7,64.1,28.03,SSE,159,0.0,0.0,98,0.00,,---,0.00,VWS V14.01,2013-08-28 12:51:00,
2013-08-28 07:56:00,65.2,64.3,28.03,SSE,159,0.0,0.0,97,0.00,,---,0.00,VWS V14.01,2013-08-28 12:56:00,
2013-08-28 08:01:00,66.5,64.7,28.03,SSE,159,0.0,0.0,94,0.00,,---,0.00,VWS V14.01,2013-08-28 13:01:00,
2013-08-28 08:06:00,67.7,64.7,28.04,SSE,159,0.0,0.0,90,0.00,,---,0.00,VWS V14.01,2013-08-28 13:06:00,
2013-08-28 08:11:00,68.4,64.4,28.04,SSE,159,0.0,0.0,87,0.00,,---,0.00,VWS V14.01,2013-08-28 13:11:00,
2013-08-28 08:16:00,69.0,64.6,28.04,SSE,159,0.0,1.0,86,0.00,,---,0.00,VWS V14.01,2013-08-28 13:16:00,
2013-08-28 08:22:00,69.9,65.5,28.04,SSE,159,0.0,0.0,86,0.00,,---,0.00,VWS V14.01,2013-08-28 13:22:00,
2013-08-28 08:27:00,70.8,65.7,28.04,SSE,159,0.0,0.0,84,0.00,,---,0.00,VWS V14.01,2013-08-28 13:27:00,
2013-08-28 08:32:00,71.5,66.1,28.04,SSE,161,3.0,3.0,83,0.00,,---,0.00,VWS V14.01,2013-08-28 13:32:00,
2013-08-28 08:37:00,72.1,66.3,28.04,SSE,165,2.0,2.0,82,0.00,,---,0.00,VWS V14.01,2013-08-28 13:37:00,
2013-08-28 08:42:00,72.7,66.9,28.04,SSE,166,0.0,0.0,82,0.00,,---,0.00,VWS V14.01,2013-08-28 13:42:00,
2013-08-28 08:47:00,73.2,66.7,28.05,SSW,198,1.0,2.0,80,0.00,,---,0.00,VWS V14.01,2013-08-28 13:47:00,
2013-08-28 08:52:00,73.7,67.2,28.05,SSW,198,0.0,0.0,80,0.00,,---,0.00,VWS V14.01,2013-08-28 13:52:00,
2013-08-28 08:58:00,74.2,67.3,28.05,SSW,198,0.0,1.0,79,0.00,,---,0.00,VWS V14.01,2013-08-28 13:58:00,
2013-08-28 09:03:00,74.7,67.8,28.05,SSW,198,1.0,2.0,79,0.00,,---,0.00,VWS V14.01,2013-08-28 14:03:00,
2013-08-28 09:08:00,75.2,68.2,28.05,SSW,202,1.0,1.0,79,0.00,,---,0.00,VWS V14.01,2013-08-28 14:08:00,
2013-08-28 09:13:00,75.5,68.2,28.05,SSW,202,0.0,0.0,78,0.00,,---,0.00,VWS V14.01,2013-08-28 14:13:00,
2013-08-28 09:18:00,76.4,68.3,28.05,SSW,202,0.0,1.0,76,0.00,,---,0.00,VWS V14.01,2013-08-28 14:18:00,
2013-08-28 09:23:00,77.3,68.8,28.05,SSW,202,0.0,1.0,75,0.00,,---,0.00,VWS V14.01,2013-08-28 14:23:00,
2013-08-28 09:28:00,77.3,68.4,28.05,SSW,202,2.0,2.0,74,0.00,,---,0.00,VWS V14.01,2013-08-28 14:28:00,
2013-08-28 09:33:00,77.0,68.1,28.05,SSW,202,1.0,1.0,74,0.00,,---,0.00,VWS V14.01,2013-08-28 14:33:00,
2013-08-28 09:39:00,77.1,69.0,28.05,SSW,202,0.0,0.0,76,0.00,,---,0.00,VWS V14.01,2013-08-28 14:39:00,
2013-08-28 09:44:00,77.6,69.1,28.05,SSW,202,2.0,2.0,75,0.00,,---,0.00,VWS V14.01,2013-08-28 14:44:00,
2013-08-28 09:49:00,78.4,69.4,28.05,SSW,202,0.0,1.0,74,0.00,,---,0.00,VWS V14.01,2013-08-28 14:49:00,
2013-08-28 09:54:00,79.0,68.8,28.05,SSW,202,0.0,2.0,71,0.00,,---,0.00,VWS V14.01,2013-08-28 14:54:00,
2013-08-28 09:59:00,79.4,69.6,28.05,SSW,202,0.0,0.0,72,0.00,,---,0.00,VWS V14.01,2013-08-28 14:59:00,
2013-08-28 10:05:00,79.7,69.1,28.05,SSW,202,0.0,1.0,70,0.00,,---,0.00,VWS V14.01,2013-08-28 15:05:00,
2013-08-28 10:10:00,80.0,68.9,28.05,SSW,202,0.0,0.0,69,0.00,,---,0.00,VWS V14.01,2013-08-28 15:10:00,
2013-08-28 10:15:00,80.6,69.5,28.05,SSW,202,0.0,1.0,69,0.00,,---,0.00,VWS V14.01,2013-08-28 15:15:00,
2013-08-28 10:20:00,81.3,69.7,28.05,SSW,202,0.0,0.0,68,0.00,,---,0.00,VWS V14.01,2013-08-28 15:20:00,
2013-08-28 10:25:00,81.6,69.2,28.05,SW,227,2.0,4.0,66,0.00,,---,0.00,VWS V14.01,2013-08-28 15:25:00,
2013-08-28 10:30:00,81.7,69.2,28.05,SW,227,1.0,2.0,66,0.00,,---,0.00,VWS V14.01,2013-08-28 15:30:00,
2013-08-28 10:36:00,82.1,70.9,28.05,SSE,163,1.0,1.0,69,0.00,,---,0.00,VWS V14.01,2013-08-28 15:36:00,
2013-08-28 10:41:00,82.5,69.6,28.05,SSE,163,0.0,3.0,65,0.00,,---,0.00,VWS V14.01,2013-08-28 15:41:00,
2013-08-28 10:46:00,82.4,69.0,28.05,South,169,0.0,4.0,64,0.00,,---,0.00,VWS V14.01,2013-08-28 15:46:00,
2013-08-28 10:51:00,82.1,69.2,28.05,WSW,249,4.0,4.0,65,0.00,,---,0.00,VWS V14.01,2013-08-28 15:51:00,
2013-08-28 10:56:00,82.2,70.2,28.05,WSW,243,0.0,1.0,67,0.00,,---,0.00,VWS V14.01,2013-08-28 15:56:00,
2013-08-28 11:01:00,82.6,69.2,28.06,SW,218,3.0,3.0,64,0.00,,---,0.00,VWS V14.01,2013-08-28 16:01:00,
2013-08-28 11:07:00,82.2,68.4,28.06,SW,216,4.0,7.0,63,0.00,,---,0.00,VWS V14.01,2013-08-28 16:07:00,
2013-08-28 11:12:00,81.9,68.5,28.06,West,264,4.0,4.0,64,0.00,,---,0.00,VWS V14.01,2013-08-28 16:12:00,
2013-08-28 11:17:00,82.3,69.4,28.05,West,265,6.0,6.0,65,0.00,,---,0.00,VWS V14.01,2013-08-28 16:17:00,
2013-08-28 11:22:00,82.8,68.9,28.05,SW,230,2.0,4.0,63,0.00,,---,0.00,VWS V14.01,2013-08-28 16:22:00,
2013-08-28 11:27:00,83.1,67.8,28.05,SW,218,1.0,4.0,60,0.00,,---,0.00,VWS V14.01,2013-08-28 16:27:00,
2013-08-28 11:33:00,83.3,68.5,28.05,SSW,197,0.0,1.0,61,0.00,,---,0.00,VWS V14.01,2013-08-28 16:33:00,
2013-08-28 11:38:00,84.2,67.8,28.05,West,281,2.0,6.0,58,0.00,,---,0.00,VWS V14.01,2013-08-28 16:38:00,
2013-08-28 11:43:00,84.3,66.9,28.05,SSE,165,0.0,3.0,56,0.00,,---,0.00,VWS V14.01,2013-08-28 16:43:00,
2013-08-28 11:48:00,84.5,67.6,28.05,South,191,2.0,3.0,57,0.00,,---,0.00,VWS V14.01,2013-08-28 16:48:00,
2013-08-28 11:53:00,84.7,68.8,28.05,WSW,251,1.0,1.0,59,0.00,,---,0.00,VWS V14.01,2013-08-28 16:53:00,
2013-08-28 11:58:00,84.9,68.5,28.05,West,274,0.0,1.0,58,0.00,,---,0.00,VWS V14.01,2013-08-28 16:58:00,
2013-08-28 12:04:00,85.9,69.9,28.05,South,184,1.0,2.0,59,0.00,,---,0.00,VWS V14.01,2013-08-28 17:04:00,
2013-08-28 12:09:00,86.5,70.5,28.05,WSW,253,1.0,1.0,59,0.00,,---,0.00,VWS V14.01,2013-08-28 17:09:00,
2013-08-28 12:14:00,86.6,68.5,28.05,South,172,1.0,3.0,55,0.00,,---,0.00,VWS V14.01,2013-08-28 17:14:00,
2013-08-28 12:19:00,86.0,68.5,28.05,SSE,158,4.0,5.0,56,0.00,,---,0.00,VWS V14.01,2013-08-28 17:19:00,
2013-08-28 12:24:00,86.1,69.1,28.05,South,173,2.0,3.0,57,0.00,,---,0.00,VWS V14.01,2013-08-28 17:24:00,
2013-08-28 12:29:00,86.1,70.6,28.05,SW,216,5.0,5.0,60,0.00,,---,0.00,VWS V14.01,2013-08-28 17:29:00,
2013-08-28 12:34:00,85.6,67.1,28.04,West,263,5.0,5.0,54,0.00,,---,0.00,VWS V14.01,2013-08-28 17:34:00,
2013-08-28 12:39:00,85.3,68.3,28.04,WSW,253,0.0,2.0,57,0.00,,---,0.00,VWS V14.01,2013-08-28 17:39:00,
2013-08-28 12:44:00,85.5,67.5,28.04,WNW,291,1.0,3.0,55,0.00,,---,0.00,VWS V14.01,2013-08-28 17:44:00,
2013-08-28 12:49:00,85.6,68.6,28.04,WNW,290,0.0,0.0,57,0.00,,---,0.00,VWS V14.01,2013-08-28 17:49:00,
2013-08-28 12:55:00,85.7,68.2,28.04,WSW,246,3.0,4.0,56,0.00,,---,0.00,VWS V14.01,2013-08-28 17:55:00,
2013-08-28 13:00:00,86.0,69.0,28.04,WSW,252,0.0,4.0,57,0.00,,---,0.00,VWS V14.01,2013-08-28 18:00:00,
2013-08-28 13:05:00,86.3,68.2,28.04,WSW,257,1.0,7.0,55,0.00,,---,0.00,VWS V14.01,2013-08-28 18:05:00,
2013-08-28 13:10:00,86.3,68.2,28.04,WSW,254,4.0,5.0,55,0.00,,---,0.00,VWS V14.01,2013-08-28 18:10:00,
2013-08-28 13:15:00,85.8,67.8,28.04,WSW,251,0.0,1.0,55,0.00,,---,0.00,VWS V14.01,2013-08-28 18:15:00,
2013-08-28 13:20:00,85.9,68.4,28.04,WSW,254,2.0,4.0,56,0.00,,---,0.00,VWS V14.01,2013-08-28 18:20:00,
2013-08-28 13:25:00,86.4,68.3,28.04,WSW,258,0.0,3.0,55,0.00,,---,0.00,VWS V14.01,2013-08-28 18:25:00,
2013-08-28 13:30:00,86.0,67.4,28.04,SW,219,0.0,2.0,54,0.00,,---,0.00,VWS V14.01,2013-08-28 18:30:00,
2013-08-28 13:35:00,85.9,67.9,28.04,WNW,284,1.0,1.0,55,0.00,,---,0.00,VWS V14.01,2013-08-28 18:35:00,
2013-08-28 13:41:00,86.3,68.2,28.04,WNW,289,2.0,2.0,55,0.00,,---,0.00,VWS V14.01,2013-08-28 18:41:00,
2013-08-28 13:46:00,86.5,69.0,28.04,WSW,256,1.0,6.0,56,0.00,,---,0.00,VWS V14.01,2013-08-28 18:46:00,
2013-08-28 13:51:00,86.7,68.1,28.03,West,269,0.0,5.0,54,0.00,,---,0.00,VWS V14.01,2013-08-28 18:51:00,
2013-08-28 13:56:00,87.1,69.0,28.03,SSW,207,4.0,7.0,55,0.00,,---,0.00,VWS V14.01,2013-08-28 18:56:00,
2013-08-28 14:01:00,87.1,68.4,28.03,WNW,294,2.0,2.0,54,0.00,,---,0.00,VWS V14.01,2013-08-28 19:01:00,
2013-08-28 14:06:00,87.2,67.4,28.03,South,177,3.0,4.0,52,0.00,,---,0.00,VWS V14.01,2013-08-28 19:06:00,
2013-08-28 14:12:00,87.5,67.2,28.03,SSW,198,0.0,4.0,51,0.00,,---,0.00,VWS V14.01,2013-08-28 19:12:00,
2013-08-28 14:17:00,87.3,67.5,28.03,SW,219,3.0,3.0,52,0.00,,---,0.00,VWS V14.01,2013-08-28 19:17:00,
2013-08-28 14:22:00,87.0,68.4,28.03,NW,304,1.0,4.0,54,0.00,,---,0.00,VWS V14.01,2013-08-28 19:22:00,
2013-08-28 14:28:00,87.4,68.7,28.03,West,269,1.0,1.0,54,0.00,,---,0.00,VWS V14.01,2013-08-28 19:28:00,
2013-08-28 14:33:00,87.4,68.7,28.03,SW,220,1.0,2.0,54,0.00,,---,0.00,VWS V14.01,2013-08-28 19:33:00,
2013-08-28 14:38:00,87.1,67.9,28.03,South,189,0.0,3.0,53,0.00,,---,0.00,VWS V14.01,2013-08-28 19:38:00,
2013-08-28 14:43:00,86.7,67.5,28.03,WNW,301,0.0,0.0,53,0.00,,---,0.00,VWS V14.01,2013-08-28 19:43:00,
2013-08-28 14:48:00,86.7,68.6,28.03,SSW,192,4.0,4.0,55,0.00,,---,0.00,VWS V14.01,2013-08-28 19:48:00,
2013-08-28 14:54:00,87.3,68.6,28.03,SW,215,4.0,4.0,54,0.00,,---,0.00,VWS V14.01,2013-08-28 19:54:00,
2013-08-28 14:59:00,88.2,68.4,28.03,WSW,244,3.0,5.0,52,0.00,,---,0.00,VWS V14.01,2013-08-28 19:59:00,
2013-08-28 15:04:00,88.7,69.4,28.03,WSW,239,0.0,4.0,53,0.00,,---,0.00,VWS V14.01,2013-08-28 20:04:00,
2013-08-28 15:09:00,87.6,69.4,28.03,SW,228,0.0,0.0,55,0.00,,---,0.00,VWS V14.01,2013-08-28 20:09:00,
2013-08-28 15:14:00,86.8,69.2,28.03,SW,215,3.0,3.0,56,0.00,,---,0.00,VWS V14.01,2013-08-28 20:14:00,
2013-08-28 15:19:00,85.7,70.2,28.03,SSE,163,1.0,1.0,60,0.00,,---,0.00,VWS V14.01,2013-08-28 20:19:00,
2013-08-28 15:24:00,84.8,67.9,28.03,SSE,159,3.0,6.0,57,0.00,,---,0.00,VWS V14.01,2013-08-28 20:24:00,
2013-08-28 15:30:00,84.4,69.0,28.03,SSE,164,0.0,2.0,60,0.00,,---,0.00,VWS V14.01,2013-08-28 20:30:00,
2013-08-28 15:35:00,84.0,69.1,28.03,SSE,164,1.0,1.0,61,0.00,,---,0.00,VWS V14.01,2013-08-28 20:35:00,
2013-08-28 15:40:00,83.6,69.7,28.03,SSE,157,2.0,5.0,63,0.00,,---,0.00,VWS V14.01,2013-08-28 20:40:00,
2013-08-28 15:45:00,83.1,67.8,28.03,SE,139,3.0,7.0,60,0.00,,---,0.00,VWS V14.01,2013-08-28 20:45:00,
2013-08-28 15:50:00,82.9,67.6,28.03,SE,144,1.0,4.0,60,0.00,,---,0.00,VWS V14.01,2013-08-28 20:50:00,
2013-08-28 15:55:00,82.5,67.2,28.03,South,172,2.0,5.0,60,0.00,,---,0.00,VWS V14.01,2013-08-28 20:55:00,
2013-08-28 16:00:00,82.1,67.8,28.03,SE,128,3.0,5.0,62,0.00,,---,0.00,VWS V14.01,2013-08-28 21:00:00,
2013-08-28 16:06:00,82.1,68.3,28.02,SSE,147,1.0,1.0,63,0.00,,---,0.00,VWS V14.01,2013-08-28 21:06:00,
2013-08-28 16:11:00,82.0,67.7,28.02,SSW,195,0.0,2.0,62,0.00,,---,0.00,VWS V14.01,2013-08-28 21:11:00,
2013-08-28 16:16:00,81.7,67.9,28.02,South,176,1.0,5.0,63,0.00,,---,0.00,VWS V14.01,2013-08-28 21:16:00,
2013-08-28 16:21:00,81.3,67.5,28.03,South,191,4.0,4.0,63,0.00,,---,0.00,VWS V14.01,2013-08-28 21:21:00,
2013-08-28 16:26:00,80.9,68.5,28.03,SE,136,0.0,0.0,66,0.00,,---,0.00,VWS V14.01,2013-08-28 21:26:00,
2013-08-28 16:32:00,80.9,68.9,28.03,South,177,0.0,1.0,67,0.00,,---,0.00,VWS V14.01,2013-08-28 21:32:00,
2013-08-28 16:37:00,80.7,67.4,28.03,South,175,1.0,5.0,64,0.00,,---,0.00,VWS V14.01,2013-08-28 21:37:00,
2013-08-28 16:42:00,80.2,66.9,28.03,South,174,2.0,6.0,64,0.00,,---,0.00,VWS V14.01,2013-08-28 21:42:00,
2013-08-28 16:47:00,79.8,68.7,28.03,SSE,150,0.0,1.0,69,0.00,,---,0.00,VWS V14.01,2013-08-28 21:47:00,
2013-08-28 16:52:00,79.6,68.1,28.03,South,181,1.0,2.0,68,0.00,,---,0.00,VWS V14.01,2013-08-28 21:52:00,
2013-08-28 16:57:00,79.3,67.4,28.03,SSE,168,0.0,4.0,67,0.00,,---,0.00,VWS V14.01,2013-08-28 21:57:00,
2013-08-28 17:02:00,79.2,67.3,28.03,South,174,2.0,5.0,67,0.00,,---,0.00,VWS V14.01,2013-08-28 22:02:00,
2013-08-28 17:08:00,79.0,67.1,28.03,South,174,0.0,4.0,67,0.00,,---,0.00,VWS V14.01,2013-08-28 22:08:00,
2013-08-28 17:13:00,79.0,68.4,28.03,SSE,165,1.0,1.0,70,0.00,,---,0.00,VWS V14.01,2013-08-28 22:13:00,
2013-08-28 17:18:00,78.9,67.4,28.03,SE,146,1.0,3.0,68,0.00,,---,0.00,VWS V14.01,2013-08-28 22:18:00,
2013-08-28 17:23:00,79.0,67.6,28.03,South,184,3.0,5.0,68,0.00,,---,0.00,VWS V14.01,2013-08-28 22:23:00,
2013-08-28 17:28:00,79.1,68.1,28.03,SSW,194,0.0,0.0,69,0.00,,---,0.00,VWS V14.01,2013-08-28 22:28:00,
2013-08-28 17:33:00,78.9,67.9,28.03,SSE,162,0.0,4.0,69,0.00,,---,0.00,VWS V14.01,2013-08-28 22:33:00,
2013-08-28 17:39:00,78.7,68.5,28.03,South,174,0.0,0.0,71,0.00,,---,0.00,VWS V14.01,2013-08-28 22:39:00,
2013-08-28 17:44:00,78.5,67.9,28.03,South,177,2.0,8.0,70,0.00,,---,0.00,VWS V14.01,2013-08-28 22:44:00,
2013-08-28 17:49:00,78.3,67.7,28.03,SSE,156,0.0,4.0,70,0.00,,---,0.00,VWS V14.01,2013-08-28 22:49:00,
2013-08-28 17:54:00,78.1,67.9,28.03,SSW,193,4.0,4.0,71,0.00,,---,0.00,VWS V14.01,2013-08-28 22:54:00,
2013-08-28 17:59:00,77.9,67.8,28.03,SSE,159,1.0,4.0,71,0.00,,---,0.00,VWS V14.01,2013-08-28 22:59:00,
2013-08-28 18:04:00,77.7,67.6,28.03,South,188,1.0,1.0,71,0.00,,---,0.00,VWS V14.01,2013-08-28 23:04:00,
2013-08-28 18:10:00,77.5,67.4,28.03,South,187,1.0,3.0,71,0.00,,---,0.00,VWS V14.01,2013-08-28 23:10:00,
2013-08-28 18:14:00,77.3,67.2,28.03,South,190,1.0,4.0,71,0.00,,---,0.00,VWS V14.01,2013-08-28 23:14:00,
2013-08-28 18:20:00,77.0,66.9,28.04,SW,214,3.0,4.0,71,0.00,,---,0.00,VWS V14.01,2013-08-28 23:20:00,
2013-08-28 18:25:00,76.8,66.3,28.04,SSW,198,0.0,2.0,70,0.00,,---,0.00,VWS V14.01,2013-08-28 23:25:00,
2013-08-28 18:30:00,76.6,66.5,28.04,SSE,165,3.0,3.0,71,0.00,,---,0.00,VWS V14.01,2013-08-28 23:30:00,
2013-08-28 18:35:00,76.5,66.4,28.03,SSE,163,0.0,0.0,71,0.00,,---,0.00,VWS V14.01,2013-08-28 23:35:00,
2013-08-28 18:40:00,76.3,66.6,28.03,South,171,6.0,6.0,72,0.00,,---,0.00,VWS V14.01,2013-08-28 23:40:00,
2013-08-28 18:46:00,76.2,67.3,28.03,SSW,207,0.0,6.0,74,0.00,,---,0.00,VWS V14.01,2013-08-28 23:46:00,
2013-08-28 18:51:00,76.0,67.1,28.03,SSW,196,0.0,0.0,74,0.00,,---,0.00,VWS V14.01,2013-08-28 23:51:00,
2013-08-28 18:56:00,75.7,66.4,28.03,SSW,196,0.0,4.0,73,0.00,,---,0.00,VWS V14.01,2013-08-28 23:56:00,
2013-08-28 19:01:00,75.5,67.0,28.03,South,188,0.0,2.0,75,0.00,,---,0.00,VWS V14.01,2013-08-29 00:01:00,
2013-08-28 19:06:00,75.2,66.7,28.03,SSE,147,1.0,3.0,75,0.00,,---,0.00,VWS V14.01,2013-08-29 00:06:00,
2013-08-28 19:11:00,74.9,66.4,28.03,SSE,148,0.0,0.0,75,0.00,,---,0.00,VWS V14.01,2013-08-29 00:11:00,
2013-08-28 19:17:00,74.6,66.5,28.04,SSW,192,0.0,1.0,76,0.00,,---,0.00,VWS V14.01,2013-08-29 00:17:00,
2013-08-28 19:22:00,74.3,66.6,28.04,South,190,0.0,1.0,77,0.00,,---,0.00,VWS V14.01,2013-08-29 00:22:00,
2013-08-28 19:27:00,74.0,66.7,28.04,SSW,194,1.0,2.0,78,0.00,,---,0.00,VWS V14.01,2013-08-29 00:27:00,
2013-08-28 19:32:00,73.7,66.4,28.04,South,178,0.0,0.0,78,0.00,,---,0.00,VWS V14.01,2013-08-29 00:32:00,
2013-08-28 19:37:00,73.5,66.6,28.04,SE,139,1.0,1.0,79,0.00,,---,0.00,VWS V14.01,2013-08-29 00:37:00,
2013-08-28 19:42:00,73.5,66.2,28.04,SSE,150,0.0,0.0,78,0.00,,---,0.00,VWS V14.01,2013-08-29 00:42:00,
2013-08-28 19:48:00,73.4,66.5,28.05,SSE,148,0.0,3.0,79,0.00,,---,0.00,VWS V14.01,2013-08-29 00:48:00,
2013-08-28 19:53:00,73.3,66.0,28.05,South,169,0.0,0.0,78,0.00,,---,0.00,VWS V14.01,2013-08-29 00:53:00,
2013-08-28 19:58:00,73.1,65.8,28.05,South,171,0.0,4.0,78,0.00,,---,0.00,VWS V14.01,2013-08-29 00:58:00,
2013-08-28 20:03:00,73.1,65.8,28.05,SW,221,0.0,1.0,78,0.00,,---,0.00,VWS V14.01,2013-08-29 01:03:00,
2013-08-28 20:08:00,73.1,65.8,28.05,SSW,207,1.0,1.0,78,0.00,,---,0.00,VWS V14.01,2013-08-29 01:08:00,
2013-08-28 20:13:00,73.0,65.7,28.05,SSW,207,0.0,0.0,78,0.00,,---,0.00,VWS V14.01,2013-08-29 01:13:00,
2013-08-28 20:18:00,72.9,65.7,28.05,SSW,201,3.0,3.0,78,0.00,,---,0.00,VWS V14.01,2013-08-29 01:18:00,
2013-08-28 20:24:00,72.8,65.9,28.05,South,191,1.0,2.0,79,0.00,,---,0.00,VWS V14.01,2013-08-29 01:24:00,
2013-08-28 20:29:00,72.8,65.9,28.05,South,186,0.0,0.0,79,0.00,,---,0.00,VWS V14.01,2013-08-29 01:29:00,
2013-08-28 20:34:00,72.7,65.8,28.05,South,188,0.0,1.0,79,0.00,,---,0.00,VWS V14.01,2013-08-29 01:34:00,
2013-08-28 20:39:00,72.6,66.1,28.05,South,188,1.0,1.0,80,0.00,,---,0.00,VWS V14.01,2013-08-29 01:39:00,
2013-08-28 20:44:00,72.5,66.0,28.05,South,169,0.0,2.0,80,0.00,,---,0.00,VWS V14.01,2013-08-29 01:44:00,
2013-08-28 20:49:00,72.4,65.9,28.05,SSE,167,1.0,1.0,80,0.00,,---,0.00,VWS V14.01,2013-08-29 01:49:00,
2013-08-28 20:54:00,72.2,66.1,28.05,SSE,160,0.0,0.0,81,0.00,,---,0.00,VWS V14.01,2013-08-29 01:54:00,
2013-08-28 20:59:00,72.1,65.9,28.05,SSE,162,0.0,0.0,81,0.00,,---,0.00,VWS V14.01,2013-08-29 01:59:00,
2013-08-28 21:05:00,72.1,65.9,28.06,SSE,162,0.0,1.0,81,0.00,,---,0.00,VWS V14.01,2013-08-29 02:05:00,
2013-08-28 21:10:00,72.0,65.9,28.06,SSE,167,0.0,0.0,81,0.00,,---,0.00,VWS V14.01,2013-08-29 02:10:00,
2013-08-28 21:15:00,72.0,65.9,28.06,South,177,4.0,4.0,81,0.00,,---,0.00,VWS V14.01,2013-08-29 02:15:00,
2013-08-28 21:20:00,71.9,66.1,28.06,South,179,0.0,3.0,82,0.00,,---,0.00,VWS V14.01,2013-08-29 02:20:00,
2013-08-28 21:25:00,71.7,65.9,28.06,SSW,197,2.0,2.0,82,0.00,,---,0.00,VWS V14.01,2013-08-29 02:25:00,
2013-08-28 21:31:00,71.7,65.9,28.06,SSW,209,0.0,1.0,82,0.00,,---,0.00,VWS V14.01,2013-08-29 02:31:00,
2013-08-28 21:35:00,71.7,66.3,28.05,SSW,192,0.0,3.0,83,0.00,,---,0.00,VWS V14.01,2013-08-29 02:35:00,
2013-08-28 21:40:00,71.7,66.3,28.05,SW,218,1.0,2.0,83,0.00,,---,0.00,VWS V14.01,2013-08-29 02:40:00,
2013-08-28 21:46:00,71.6,66.2,28.05,SSW,192,3.0,3.0,83,0.00,,---,0.00,VWS V14.01,2013-08-29 02:46:00,
2013-08-28 21:51:00,71.6,66.2,28.05,SW,228,0.0,0.0,83,0.00,,---,0.00,VWS V14.01,2013-08-29 02:51:00,
2013-08-28 21:56:00,71.7,66.3,28.05,SSW,210,0.0,3.0,83,0.00,,---,0.00,VWS V14.01,2013-08-29 02:56:00,
2013-08-28 22:01:00,71.9,66.1,28.05,West,269,3.0,3.0,82,0.00,,---,0.00,VWS V14.01,2013-08-29 03:01:00,
2013-08-28 22:06:00,72.0,66.2,28.06,NW,312,4.0,4.0,82,0.00,,---,0.00,VWS V14.01,2013-08-29 03:06:00,
2013-08-28 22:11:00,72.0,66.2,28.06,West,274,2.0,2.0,82,0.00,,---,0.00,VWS V14.01,2013-08-29 03:11:00,
2013-08-28 22:16:00,71.9,66.1,28.06,SW,226,2.0,5.0,82,0.00,,---,0.00,VWS V14.01,2013-08-29 03:16:00,
2013-08-28 22:21:00,71.7,66.3,28.06,SSW,210,1.0,1.0,83,0.00,,---,0.00,VWS V14.01,2013-08-29 03:21:00,
2013-08-28 22:26:00,71.6,66.5,28.06,SW,223,0.0,0.0,84,0.00,,---,0.00,VWS V14.01,2013-08-29 03:26:00,
2013-08-28 22:31:00,71.4,66.3,28.06,SW,223,0.0,2.0,84,0.00,,---,0.00,VWS V14.01,2013-08-29 03:31:00,
2013-08-28 22:36:00,71.3,66.2,28.06,SW,223,0.0,0.0,84,0.00,,---,0.00,VWS V14.01,2013-08-29 03:36:00,
2013-08-28 22:41:00,71.1,66.4,28.06,SW,223,0.0,0.0,85,0.00,,---,0.00,VWS V14.01,2013-08-29 03:41:00,
2013-08-28 22:46:00,70.9,66.2,28.06,SW,223,0.0,0.0,85,0.00,,---,0.00,VWS V14.01,2013-08-29 03:46:00,
2013-08-28 22:51:00,70.8,66.4,28.05,SW,223,0.0,1.0,86,0.00,,---,0.00,VWS V14.01,2013-08-29 03:51:00,
2013-08-28 22:57:00,70.7,66.3,28.05,SW,224,0.0,0.0,86,0.00,,---,0.00,VWS V14.01,2013-08-29 03:57:00,
2013-08-28 23:01:00,70.6,66.2,28.05,SW,224,0.0,0.0,86,0.00,,---,0.00,VWS V14.01,2013-08-29 04:01:00,
2013-08-28 23:02:00,70.5,66.1,28.05,SW,224,0.0,0.0,86,0.00,,---,0.00,VWS V14.01,2013-08-29 04:02:00,
2013-08-28 23:03:00,70.5,66.1,28.05,SW,224,0.0,0.0,86,0.00,,---,0.00,VWS V14.01,2013-08-29 04:03:00,
2013-08-28 23:08:00,70.3,66.2,28.05,SW,224,0.0,0.0,87,0.00,,---,0.00,VWS V14.01,2013-08-29 04:08:00,
2013-08-28 23:13:00,70.2,66.5,28.05,SW,224,0.0,0.0,88,0.00,,---,0.00,VWS V14.01,2013-08-29 04:13:00,
2013-08-28 23:18:00,70.0,66.3,28.06,SW,224,0.0,1.0,88,0.00,,---,0.00,VWS V14.01,2013-08-29 04:18:00,
2013-08-28 23:24:00,69.9,66.2,28.06,SW,234,0.0,2.0,88,0.00,,---,0.00,VWS V14.01,2013-08-29 04:24:00,
2013-08-28 23:29:00,69.9,66.2,28.06,SW,234,0.0,0.0,88,0.00,,---,0.00,VWS V14.01,2013-08-29 04:29:00,
2013-08-28 23:34:00,69.9,66.2,28.06,WSW,254,4.0,4.0,88,0.00,,---,0.00,VWS V14.01,2013-08-29 04:34:00,
2013-08-28 23:39:00,70.0,66.3,28.06,WSW,255,2.0,2.0,88,0.00,,---,0.00,VWS V14.01,2013-08-29 04:39:00,
2013-08-28 23:44:00,70.1,66.4,28.06,WSW,255,0.0,0.0,88,0.00,,---,0.00,VWS V14.01,2013-08-29 04:44:00,
2013-08-28 23:49:00,70.1,66.1,28.06,WSW,257,1.0,4.0,87,0.00,,---,0.00,VWS V14.01,2013-08-29 04:49:00,
2013-08-28 23:54:00,70.1,66.1,28.06,WSW,257,0.0,0.0,87,0.00,,---,0.00,VWS V14.01,2013-08-29 04:54:00,
2013-08-28 23:59:00,70.1,66.4,28.06,West,259,1.0,2.0,88,0.00,,---,0.00,VWS V14.01,2013-08-29 04:59:00,